Terminal Aerodrome Forecast
Issued by NWS

Home | Current Version | Previous Version | Text Only | Print | Product List | Glossary On
Versions: 1 2 3 4 5 6 7 8 9 10 11 12 13 14 15 16 17 18 19 20
000
FTUS45 KTFX 271700
TAFBZN
TAF
KBZN 271722Z 2718/2818 21007KT P6SM BKN080 WS020/24035KT
     FM280200 VRB05KT P6SM SCT060 BKN090 WS020/27035KT=

USA.gov is the U.S. government's official web portal to all federal, state and local government web resources and services.